sensor_id;sensor_type;location;lat;lon;timestamp;P1;durP1;ratioP1;P2;durP2;ratioP2
19679;SDS011;9989;48.962;9.182;2024-03-02T00:02:13;24.67;;;14.07;;
19679;SDS011;9989;48.962;9.182;2024-03-02T00:04:44;23.37;;;14.30;;
19679;SDS011;9989;48.962;9.182;2024-03-02T00:07:10;20.87;;;13.63;;
19679;SDS011;9989;48.962;9.182;2024-03-02T00:09:38;28.20;;;14.37;;
19679;SDS011;9989;48.962;9.182;2024-03-02T00:12:04;23.97;;;14.73;;
19679;SDS011;9989;48.962;9.182;2024-03-02T00:14:30;22.60;;;13.50;;
19679;SDS011;9989;48.962;9.182;2024-03-02T00:16:56;23.67;;;14.43;;
19679;SDS011;9989;48.962;9.182;2024-03-02T00:19:22;22.67;;;13.73;;
19679;SDS011;9989;48.962;9.182;2024-03-02T00:21:48;20.77;;;13.53;;
19679;SDS011;9989;48.962;9.182;2024-03-02T00:24:33;23.93;;;14.10;;
19679;SDS011;9989;48.962;9.182;2024-03-02T00:27:00;23.03;;;14.53;;
19679;SDS011;9989;48.962;9.182;2024-03-02T00:29:28;22.30;;;14.20;;
19679;SDS011;9989;48.962;9.182;2024-03-02T00:31:54;21.87;;;13.80;;
19679;SDS011;9989;48.962;9.182;2024-03-02T00:34:20;21.63;;;12.90;;
19679;SDS011;9989;48.962;9.182;2024-03-02T00:36:47;19.87;;;12.87;;
19679;SDS011;9989;48.962;9.182;2024-03-02T00:39:14;22.07;;;13.40;;
19679;SDS011;9989;48.962;9.182;2024-03-02T00:41:42;21.70;;;13.53;;
19679;SDS011;9989;48.962;9.182;2024-03-02T00:44:09;20.57;;;12.77;;
19679;SDS011;9989;48.962;9.182;2024-03-02T00:46:37;21.10;;;12.67;;
19679;SDS011;9989;48.962;9.182;2024-03-02T00:49:16;23.00;;;13.77;;
19679;SDS011;9989;48.962;9.182;2024-03-02T00:51:52;22.00;;;12.80;;
19679;SDS011;9989;48.962;9.182;2024-03-02T00:54:22;23.90;;;13.80;;
19679;SDS011;9989;48.962;9.182;2024-03-02T00:56:50;21.10;;;13.70;;
19679;SDS011;9989;48.962;9.182;2024-03-02T00:59:16;23.47;;;14.00;;
19679;SDS011;9989;48.962;9.182;2024-03-02T01:01:43;22.33;;;13.50;;
19679;SDS011;9989;48.962;9.182;2024-03-02T01:04:08;23.33;;;13.93;;
19679;SDS011;9989;48.962;9.182;2024-03-02T01:06:37;20.80;;;12.93;;
19679;SDS011;9989;48.962;9.182;2024-03-02T01:09:03;23.50;;;14.13;;
19679;SDS011;9989;48.962;9.182;2024-03-02T01:11:29;21.90;;;13.10;;
19679;SDS011;9989;48.962;9.182;2024-03-02T01:13:55;21.50;;;12.97;;
19679;SDS011;9989;48.962;9.182;2024-03-02T01:16:20;23.23;;;12.83;;
19679;SDS011;9989;48.962;9.182;2024-03-02T01:18:46;23.97;;;12.90;;
19679;SDS011;9989;48.962;9.182;2024-03-02T01:21:12;21.00;;;12.70;;
19679;SDS011;9989;48.962;9.182;2024-03-02T01:23:37;22.40;;;13.47;;
19679;SDS011;9989;48.962;9.182;2024-03-02T01:26:03;23.17;;;13.73;;
19679;SDS011;9989;48.962;9.182;2024-03-02T01:28:29;22.93;;;14.27;;
19679;SDS011;9989;48.962;9.182;2024-03-02T01:30:54;24.20;;;13.63;;
19679;SDS011;9989;48.962;9.182;2024-03-02T01:33:20;22.73;;;13.07;;
19679;SDS011;9989;48.962;9.182;2024-03-02T01:35:46;21.97;;;13.83;;
19679;SDS011;9989;48.962;9.182;2024-03-02T01:38:12;24.70;;;14.10;;
19679;SDS011;9989;48.962;9.182;2024-03-02T01:40:38;22.50;;;13.53;;
19679;SDS011;9989;48.962;9.182;2024-03-02T01:43:04;21.33;;;12.77;;
19679;SDS011;9989;48.962;9.182;2024-03-02T01:45:31;22.50;;;13.17;;
19679;SDS011;9989;48.962;9.182;2024-03-02T01:47:57;23.97;;;13.67;;
19679;SDS011;9989;48.962;9.182;2024-03-02T01:50:29;23.33;;;13.63;;
19679;SDS011;9989;48.962;9.182;2024-03-02T01:52:57;23.30;;;13.20;;
19679;SDS011;9989;48.962;9.182;2024-03-02T01:55:23;22.17;;;13.27;;
19679;SDS011;9989;48.962;9.182;2024-03-02T01:57:49;22.80;;;12.97;;
19679;SDS011;9989;48.962;9.182;2024-03-02T02:00:22;23.03;;;13.87;;
19679;SDS011;9989;48.962;9.182;2024-03-02T02:02:49;24.17;;;13.63;;
19679;SDS011;9989;48.962;9.182;2024-03-02T02:05:15;22.40;;;13.67;;
19679;SDS011;9989;48.962;9.182;2024-03-02T02:07:41;22.13;;;13.17;;
19679;SDS011;9989;48.962;9.182;2024-03-02T02:10:07;26.23;;;12.80;;
19679;SDS011;9989;48.962;9.182;2024-03-02T02:12:34;26.17;;;13.50;;
19679;SDS011;9989;48.962;9.182;2024-03-02T02:15:00;22.57;;;12.47;;
19679;SDS011;9989;48.962;9.182;2024-03-02T02:17:25;22.83;;;13.30;;
19679;SDS011;9989;48.962;9.182;2024-03-02T02:19:51;21.70;;;12.37;;
19679;SDS011;9989;48.962;9.182;2024-03-02T02:22:17;25.37;;;13.83;;
19679;SDS011;9989;48.962;9.182;2024-03-02T02:24:42;20.73;;;12.23;;
19679;SDS011;9989;48.962;9.182;2024-03-02T02:27:08;22.07;;;13.03;;
19679;SDS011;9989;48.962;9.182;2024-03-02T02:29:36;21.60;;;12.47;;
19679;SDS011;9989;48.962;9.182;2024-03-02T02:32:02;19.90;;;11.90;;
19679;SDS011;9989;48.962;9.182;2024-03-02T02:34:28;20.07;;;11.90;;
19679;SDS011;9989;48.962;9.182;2024-03-02T02:36:53;23.80;;;12.60;;
19679;SDS011;9989;48.962;9.182;2024-03-02T02:39:20;21.40;;;12.20;;
19679;SDS011;9989;48.962;9.182;2024-03-02T02:41:47;22.33;;;12.87;;
19679;SDS011;9989;48.962;9.182;2024-03-02T02:44:13;22.43;;;13.23;;
19679;SDS011;9989;48.962;9.182;2024-03-02T02:46:39;20.33;;;12.57;;
19679;SDS011;9989;48.962;9.182;2024-03-02T02:49:05;20.63;;;12.40;;
19679;SDS011;9989;48.962;9.182;2024-03-02T02:51:31;21.10;;;12.10;;
19679;SDS011;9989;48.962;9.182;2024-03-02T02:53:56;23.87;;;12.13;;
19679;SDS011;9989;48.962;9.182;2024-03-02T02:56:22;19.07;;;11.57;;
19679;SDS011;9989;48.962;9.182;2024-03-02T02:58:48;18.60;;;11.67;;
19679;SDS011;9989;48.962;9.182;2024-03-02T03:01:14;21.63;;;13.20;;
19679;SDS011;9989;48.962;9.182;2024-03-02T03:03:42;19.80;;;11.63;;
19679;SDS011;9989;48.962;9.182;2024-03-02T03:06:09;20.30;;;12.23;;
19679;SDS011;9989;48.962;9.182;2024-03-02T03:08:34;22.57;;;12.33;;
19679;SDS011;9989;48.962;9.182;2024-03-02T03:11:00;23.50;;;12.17;;
19679;SDS011;9989;48.962;9.182;2024-03-02T03:13:25;21.50;;;11.70;;
19679;SDS011;9989;48.962;9.182;2024-03-02T03:15:51;21.70;;;12.10;;
19679;SDS011;9989;48.962;9.182;2024-03-02T03:18:17;18.53;;;11.50;;
19679;SDS011;9989;48.962;9.182;2024-03-02T03:20:43;19.37;;;11.33;;
19679;SDS011;9989;48.962;9.182;2024-03-02T03:23:09;19.73;;;12.40;;
19679;SDS011;9989;48.962;9.182;2024-03-02T03:25:34;19.87;;;11.43;;
19679;SDS011;9989;48.962;9.182;2024-03-02T03:28:00;21.17;;;11.87;;
19679;SDS011;9989;48.962;9.182;2024-03-02T03:30:26;19.03;;;11.63;;
19679;SDS011;9989;48.962;9.182;2024-03-02T03:32:52;21.03;;;12.03;;
19679;SDS011;9989;48.962;9.182;2024-03-02T03:35:17;21.23;;;11.70;;
19679;SDS011;9989;48.962;9.182;2024-03-02T03:37:43;18.73;;;11.10;;
19679;SDS011;9989;48.962;9.182;2024-03-02T03:40:09;20.77;;;11.67;;
19679;SDS011;9989;48.962;9.182;2024-03-02T03:42:38;21.67;;;12.30;;
19679;SDS011;9989;48.962;9.182;2024-03-02T03:45:04;21.73;;;12.73;;
19679;SDS011;9989;48.962;9.182;2024-03-02T03:47:33;21.43;;;12.43;;
19679;SDS011;9989;48.962;9.182;2024-03-02T03:49:59;24.33;;;13.77;;
19679;SDS011;9989;48.962;9.182;2024-03-02T03:52:25;22.73;;;12.70;;
19679;SDS011;9989;48.962;9.182;2024-03-02T03:54:50;24.53;;;13.03;;
19679;SDS011;9989;48.962;9.182;2024-03-02T03:57:16;24.83;;;12.50;;
19679;SDS011;9989;48.962;9.182;2024-03-02T03:59:42;22.27;;;12.43;;
19679;SDS011;9989;48.962;9.182;2024-03-02T04:02:08;21.87;;;12.50;;
19679;SDS011;9989;48.962;9.182;2024-03-02T04:04:34;20.23;;;11.47;;
19679;SDS011;9989;48.962;9.182;2024-03-02T04:07:00;21.53;;;10.93;;
19679;SDS011;9989;48.962;9.182;2024-03-02T04:09:26;20.50;;;12.13;;
19679;SDS011;9989;48.962;9.182;2024-03-02T04:11:52;22.43;;;12.60;;
19679;SDS011;9989;48.962;9.182;2024-03-02T04:14:17;21.37;;;12.87;;
19679;SDS011;9989;48.962;9.182;2024-03-02T04:16:43;22.30;;;12.57;;
19679;SDS011;9989;48.962;9.182;2024-03-02T04:19:08;24.50;;;13.07;;
19679;SDS011;9989;48.962;9.182;2024-03-02T04:21:34;22.97;;;12.87;;
19679;SDS011;9989;48.962;9.182;2024-03-02T04:23:59;21.60;;;12.43;;
19679;SDS011;9989;48.962;9.182;2024-03-02T04:26:25;23.70;;;12.70;;
19679;SDS011;9989;48.962;9.182;2024-03-02T04:28:51;23.73;;;13.30;;
19679;SDS011;9989;48.962;9.182;2024-03-02T04:31:17;22.53;;;12.80;;
19679;SDS011;9989;48.962;9.182;2024-03-02T04:33:43;24.77;;;13.10;;
19679;SDS011;9989;48.962;9.182;2024-03-02T04:36:09;21.67;;;13.00;;
19679;SDS011;9989;48.962;9.182;2024-03-02T04:38:34;22.13;;;12.63;;
19679;SDS011;9989;48.962;9.182;2024-03-02T04:41:00;24.63;;;13.93;;
19679;SDS011;9989;48.962;9.182;2024-03-02T04:43:26;23.27;;;12.77;;
19679;SDS011;9989;48.962;9.182;2024-03-02T04:45:51;27.50;;;13.80;;
19679;SDS011;9989;48.962;9.182;2024-03-02T04:48:17;22.13;;;13.57;;
19679;SDS011;9989;48.962;9.182;2024-03-02T04:50:44;24.23;;;13.23;;
19679;SDS011;9989;48.962;9.182;2024-03-02T04:53:09;22.10;;;12.57;;
19679;SDS011;9989;48.962;9.182;2024-03-02T04:55:35;21.87;;;12.43;;
19679;SDS011;9989;48.962;9.182;2024-03-02T04:58:07;22.23;;;12.17;;
19679;SDS011;9989;48.962;9.182;2024-03-02T05:00:33;24.80;;;12.80;;
19679;SDS011;9989;48.962;9.182;2024-03-02T05:02:59;22.27;;;12.47;;
19679;SDS011;9989;48.962;9.182;2024-03-02T05:05:24;20.17;;;11.33;;
19679;SDS011;9989;48.962;9.182;2024-03-02T05:07:50;21.97;;;11.90;;
19679;SDS011;9989;48.962;9.182;2024-03-02T05:10:15;22.03;;;12.13;;
19679;SDS011;9989;48.962;9.182;2024-03-02T05:12:41;22.47;;;11.27;;
19679;SDS011;9989;48.962;9.182;2024-03-02T05:15:07;22.13;;;11.87;;
19679;SDS011;9989;48.962;9.182;2024-03-02T05:17:33;22.03;;;12.27;;
19679;SDS011;9989;48.962;9.182;2024-03-02T05:19:58;23.60;;;12.03;;
19679;SDS011;9989;48.962;9.182;2024-03-02T05:22:24;22.47;;;12.40;;
19679;SDS011;9989;48.962;9.182;2024-03-02T05:24:49;22.17;;;12.33;;
19679;SDS011;9989;48.962;9.182;2024-03-02T05:27:15;20.40;;;12.00;;
19679;SDS011;9989;48.962;9.182;2024-03-02T05:29:40;22.80;;;12.03;;
19679;SDS011;9989;48.962;9.182;2024-03-02T05:32:06;21.40;;;11.30;;
19679;SDS011;9989;48.962;9.182;2024-03-02T05:34:32;20.40;;;11.47;;
19679;SDS011;9989;48.962;9.182;2024-03-02T05:37:00;21.83;;;11.90;;
19679;SDS011;9989;48.962;9.182;2024-03-02T05:39:26;21.30;;;12.03;;
19679;SDS011;9989;48.962;9.182;2024-03-02T05:41:52;20.13;;;11.40;;
19679;SDS011;9989;48.962;9.182;2024-03-02T05:44:17;21.53;;;11.80;;
19679;SDS011;9989;48.962;9.182;2024-03-02T05:46:43;21.33;;;12.63;;
19679;SDS011;9989;48.962;9.182;2024-03-02T05:49:09;21.23;;;11.70;;
19679;SDS011;9989;48.962;9.182;2024-03-02T05:51:35;21.47;;;11.43;;
19679;SDS011;9989;48.962;9.182;2024-03-02T05:54:00;20.03;;;10.93;;
19679;SDS011;9989;48.962;9.182;2024-03-02T05:56:26;22.33;;;12.47;;
19679;SDS011;9989;48.962;9.182;2024-03-02T05:58:52;23.27;;;12.93;;
19679;SDS011;9989;48.962;9.182;2024-03-02T06:01:36;21.83;;;13.03;;
19679;SDS011;9989;48.962;9.182;2024-03-02T06:04:02;22.37;;;12.43;;
19679;SDS011;9989;48.962;9.182;2024-03-02T06:06:28;23.57;;;13.33;;
19679;SDS011;9989;48.962;9.182;2024-03-02T06:08:53;22.83;;;12.67;;
19679;SDS011;9989;48.962;9.182;2024-03-02T06:11:19;22.90;;;12.97;;
19679;SDS011;9989;48.962;9.182;2024-03-02T06:13:45;22.33;;;12.63;;
19679;SDS011;9989;48.962;9.182;2024-03-02T06:16:11;19.70;;;11.90;;
19679;SDS011;9989;48.962;9.182;2024-03-02T06:18:37;22.93;;;12.50;;
19679;SDS011;9989;48.962;9.182;2024-03-02T06:21:02;25.70;;;15.33;;
19679;SDS011;9989;48.962;9.182;2024-03-02T06:23:28;28.13;;;16.97;;
19679;SDS011;9989;48.962;9.182;2024-03-02T06:25:54;28.77;;;18.47;;
19679;SDS011;9989;48.962;9.182;2024-03-02T06:28:19;29.13;;;16.90;;
19679;SDS011;9989;48.962;9.182;2024-03-02T06:30:45;26.63;;;14.80;;
19679;SDS011;9989;48.962;9.182;2024-03-02T06:33:11;25.17;;;13.60;;
19679;SDS011;9989;48.962;9.182;2024-03-02T06:35:36;28.60;;;14.80;;
19679;SDS011;9989;48.962;9.182;2024-03-02T06:38:02;29.23;;;15.60;;
19679;SDS011;9989;48.962;9.182;2024-03-02T06:40:28;26.60;;;15.00;;
19679;SDS011;9989;48.962;9.182;2024-03-02T06:42:54;30.83;;;17.47;;
19679;SDS011;9989;48.962;9.182;2024-03-02T06:45:19;29.20;;;16.57;;
19679;SDS011;9989;48.962;9.182;2024-03-02T06:47:45;28.77;;;16.33;;
19679;SDS011;9989;48.962;9.182;2024-03-02T06:50:10;26.53;;;14.93;;
19679;SDS011;9989;48.962;9.182;2024-03-02T06:52:36;25.97;;;15.73;;
19679;SDS011;9989;48.962;9.182;2024-03-02T06:55:02;30.27;;;17.53;;
19679;SDS011;9989;48.962;9.182;2024-03-02T06:57:29;29.40;;;16.40;;
19679;SDS011;9989;48.962;9.182;2024-03-02T06:59:55;29.60;;;16.23;;
19679;SDS011;9989;48.962;9.182;2024-03-02T07:02:23;26.70;;;15.80;;
19679;SDS011;9989;48.962;9.182;2024-03-02T07:04:55;27.40;;;15.67;;
19679;SDS011;9989;48.962;9.182;2024-03-02T07:07:21;24.17;;;13.73;;
19679;SDS011;9989;48.962;9.182;2024-03-02T07:09:46;24.73;;;14.13;;
19679;SDS011;9989;48.962;9.182;2024-03-02T07:12:13;22.30;;;13.10;;
19679;SDS011;9989;48.962;9.182;2024-03-02T07:14:38;23.43;;;13.93;;
19679;SDS011;9989;48.962;9.182;2024-03-02T07:17:23;31.53;;;16.37;;
19679;SDS011;9989;48.962;9.182;2024-03-02T07:19:48;25.70;;;14.40;;
19679;SDS011;9989;48.962;9.182;2024-03-02T07:22:14;26.23;;;14.23;;
19679;SDS011;9989;48.962;9.182;2024-03-02T07:24:43;29.83;;;15.33;;
19679;SDS011;9989;48.962;9.182;2024-03-02T07:27:10;23.77;;;13.57;;
19679;SDS011;9989;48.962;9.182;2024-03-02T07:29:37;22.73;;;12.87;;
19679;SDS011;9989;48.962;9.182;2024-03-02T07:32:03;22.20;;;12.87;;
19679;SDS011;9989;48.962;9.182;2024-03-02T07:34:29;25.57;;;14.10;;
19679;SDS011;9989;48.962;9.182;2024-03-02T07:36:55;27.40;;;15.97;;
19679;SDS011;9989;48.962;9.182;2024-03-02T07:39:21;28.97;;;15.87;;
19679;SDS011;9989;48.962;9.182;2024-03-02T07:41:47;29.57;;;15.57;;
19679;SDS011;9989;48.962;9.182;2024-03-02T07:44:13;26.67;;;14.27;;
19679;SDS011;9989;48.962;9.182;2024-03-02T07:46:40;23.63;;;13.93;;
19679;SDS011;9989;48.962;9.182;2024-03-02T07:49:06;27.33;;;14.40;;
19679;SDS011;9989;48.962;9.182;2024-03-02T07:51:32;25.73;;;14.47;;
19679;SDS011;9989;48.962;9.182;2024-03-02T07:53:58;21.00;;;12.40;;
19679;SDS011;9989;48.962;9.182;2024-03-02T07:56:23;22.90;;;13.37;;
19679;SDS011;9989;48.962;9.182;2024-03-02T07:58:49;22.30;;;12.97;;
19679;SDS011;9989;48.962;9.182;2024-03-02T08:01:15;24.07;;;13.07;;
19679;SDS011;9989;48.962;9.182;2024-03-02T08:03:42;21.47;;;12.30;;
19679;SDS011;9989;48.962;9.182;2024-03-02T08:06:12;22.33;;;13.07;;
19679;SDS011;9989;48.962;9.182;2024-03-02T08:08:42;23.23;;;14.33;;
19679;SDS011;9989;48.962;9.182;2024-03-02T08:11:08;24.97;;;13.23;;
19679;SDS011;9989;48.962;9.182;2024-03-02T08:13:33;18.77;;;11.87;;
19679;SDS011;9989;48.962;9.182;2024-03-02T08:16:00;22.93;;;12.47;;
19679;SDS011;9989;48.962;9.182;2024-03-02T08:18:25;20.07;;;12.30;;
19679;SDS011;9989;48.962;9.182;2024-03-02T08:20:51;20.53;;;11.57;;
19679;SDS011;9989;48.962;9.182;2024-03-02T08:23:16;23.83;;;13.27;;
19679;SDS011;9989;48.962;9.182;2024-03-02T08:25:42;20.63;;;12.07;;
19679;SDS011;9989;48.962;9.182;2024-03-02T08:28:08;22.77;;;12.57;;
19679;SDS011;9989;48.962;9.182;2024-03-02T08:30:33;20.77;;;12.37;;
19679;SDS011;9989;48.962;9.182;2024-03-02T08:32:59;21.27;;;11.70;;
19679;SDS011;9989;48.962;9.182;2024-03-02T08:35:25;21.47;;;12.10;;
19679;SDS011;9989;48.962;9.182;2024-03-02T08:37:51;19.90;;;11.27;;
19679;SDS011;9989;48.962;9.182;2024-03-02T08:40:16;17.53;;;10.67;;
19679;SDS011;9989;48.962;9.182;2024-03-02T08:42:42;18.00;;;10.13;;
19679;SDS011;9989;48.962;9.182;2024-03-02T08:45:08;16.80;;;10.00;;
19679;SDS011;9989;48.962;9.182;2024-03-02T08:47:34;17.43;;;10.00;;
19679;SDS011;9989;48.962;9.182;2024-03-02T08:50:00;16.13;;;9.40;;
19679;SDS011;9989;48.962;9.182;2024-03-02T08:52:26;16.53;;;8.87;;
19679;SDS011;9989;48.962;9.182;2024-03-02T08:54:52;16.27;;;9.80;;
19679;SDS011;9989;48.962;9.182;2024-03-02T08:57:17;16.27;;;9.00;;
19679;SDS011;9989;48.962;9.182;2024-03-02T08:59:43;13.90;;;8.37;;
19679;SDS011;9989;48.962;9.182;2024-03-02T09:02:09;15.23;;;9.23;;
19679;SDS011;9989;48.962;9.182;2024-03-02T09:04:35;13.10;;;8.30;;
19679;SDS011;9989;48.962;9.182;2024-03-02T09:07:01;14.50;;;7.70;;
19679;SDS011;9989;48.962;9.182;2024-03-02T09:09:26;13.10;;;7.77;;
19679;SDS011;9989;48.962;9.182;2024-03-02T09:11:52;13.37;;;8.43;;
19679;SDS011;9989;48.962;9.182;2024-03-02T09:14:19;13.03;;;7.83;;
19679;SDS011;9989;48.962;9.182;2024-03-02T09:16:45;12.47;;;8.07;;
19679;SDS011;9989;48.962;9.182;2024-03-02T09:19:11;12.67;;;7.97;;
19679;SDS011;9989;48.962;9.182;2024-03-02T09:21:37;13.23;;;7.57;;
19679;SDS011;9989;48.962;9.182;2024-03-02T09:24:03;13.10;;;8.57;;
19679;SDS011;9989;48.962;9.182;2024-03-02T09:26:28;12.00;;;8.17;;
19679;SDS011;9989;48.962;9.182;2024-03-02T09:28:54;14.10;;;8.03;;
19679;SDS011;9989;48.962;9.182;2024-03-02T09:31:20;12.23;;;7.93;;
19679;SDS011;9989;48.962;9.182;2024-03-02T09:33:45;10.67;;;6.77;;
19679;SDS011;9989;48.962;9.182;2024-03-02T09:36:17;10.80;;;6.20;;
19679;SDS011;9989;48.962;9.182;2024-03-02T09:38:44;10.53;;;6.10;;
19679;SDS011;9989;48.962;9.182;2024-03-02T09:41:09;9.80;;;5.87;;
19679;SDS011;9989;48.962;9.182;2024-03-02T09:43:35;9.57;;;5.87;;
19679;SDS011;9989;48.962;9.182;2024-03-02T09:46:01;10.37;;;6.27;;
19679;SDS011;9989;48.962;9.182;2024-03-02T09:48:27;9.70;;;5.80;;
19679;SDS011;9989;48.962;9.182;2024-03-02T09:50:52;9.27;;;5.53;;
19679;SDS011;9989;48.962;9.182;2024-03-02T09:53:18;8.47;;;4.87;;
19679;SDS011;9989;48.962;9.182;2024-03-02T09:55:47;8.37;;;4.90;;
19679;SDS011;9989;48.962;9.182;2024-03-02T09:58:12;10.83;;;5.23;;
19679;SDS011;9989;48.962;9.182;2024-03-02T10:00:38;7.70;;;4.07;;
19679;SDS011;9989;48.962;9.182;2024-03-02T10:03:04;9.10;;;4.57;;
19679;SDS011;9989;48.962;9.182;2024-03-02T10:05:30;8.87;;;4.67;;
19679;SDS011;9989;48.962;9.182;2024-03-02T10:08:00;8.93;;;4.57;;
19679;SDS011;9989;48.962;9.182;2024-03-02T10:10:34;8.87;;;5.10;;
19679;SDS011;9989;48.962;9.182;2024-03-02T10:13:07;7.73;;;4.53;;
19679;SDS011;9989;48.962;9.182;2024-03-02T10:15:33;7.50;;;4.13;;
19679;SDS011;9989;48.962;9.182;2024-03-02T10:18:00;8.40;;;4.13;;
19679;SDS011;9989;48.962;9.182;2024-03-02T10:20:26;7.63;;;4.07;;
19679;SDS011;9989;48.962;9.182;2024-03-02T10:22:54;7.87;;;4.10;;
19679;SDS011;9989;48.962;9.182;2024-03-02T10:25:33;8.73;;;4.50;;
19679;SDS011;9989;48.962;9.182;2024-03-02T10:27:59;8.03;;;4.30;;
19679;SDS011;9989;48.962;9.182;2024-03-02T10:30:26;7.40;;;3.80;;
19679;SDS011;9989;48.962;9.182;2024-03-02T10:32:55;7.23;;;4.33;;
19679;SDS011;9989;48.962;9.182;2024-03-02T10:35:24;7.47;;;3.83;;
19679;SDS011;9989;48.962;9.182;2024-03-02T10:37:51;7.13;;;3.63;;
19679;SDS011;9989;48.962;9.182;2024-03-02T10:40:17;7.10;;;3.53;;
19679;SDS011;9989;48.962;9.182;2024-03-02T10:42:43;6.57;;;3.43;;
19679;SDS011;9989;48.962;9.182;2024-03-02T10:45:10;7.80;;;3.83;;
19679;SDS011;9989;48.962;9.182;2024-03-02T10:47:39;7.27;;;4.17;;
19679;SDS011;9989;48.962;9.182;2024-03-02T10:50:06;7.27;;;4.13;;
19679;SDS011;9989;48.962;9.182;2024-03-02T10:52:34;6.73;;;3.50;;
19679;SDS011;9989;48.962;9.182;2024-03-02T10:55:00;9.53;;;4.37;;
19679;SDS011;9989;48.962;9.182;2024-03-02T10:57:26;9.37;;;3.70;;
19679;SDS011;9989;48.962;9.182;2024-03-02T10:59:56;8.37;;;3.70;;
19679;SDS011;9989;48.962;9.182;2024-03-02T11:02:28;9.50;;;3.17;;
19679;SDS011;9989;48.962;9.182;2024-03-02T11:04:57;6.10;;;3.00;;
19679;SDS011;9989;48.962;9.182;2024-03-02T11:07:28;7.03;;;3.27;;
19679;SDS011;9989;48.962;9.182;2024-03-02T11:09:55;7.70;;;2.90;;
19679;SDS011;9989;48.962;9.182;2024-03-02T11:15:02;6.37;;;3.23;;
19679;SDS011;9989;48.962;9.182;2024-03-02T11:17:34;5.80;;;2.83;;
19679;SDS011;9989;48.962;9.182;2024-03-02T11:20:00;5.83;;;2.67;;
19679;SDS011;9989;48.962;9.182;2024-03-02T11:22:28;6.00;;;2.60;;
19679;SDS011;9989;48.962;9.182;2024-03-02T11:24:53;6.60;;;2.57;;
19679;SDS011;9989;48.962;9.182;2024-03-02T11:30:10;5.20;;;2.40;;
19679;SDS011;9989;48.962;9.182;2024-03-02T11:33:07;6.43;;;3.08;;
19679;SDS011;9989;48.962;9.182;2024-03-02T11:35:36;7.13;;;3.40;;
19679;SDS011;9989;48.962;9.182;2024-03-02T11:38:03;6.13;;;3.10;;
19679;SDS011;9989;48.962;9.182;2024-03-02T11:40:29;6.57;;;2.53;;
19679;SDS011;9989;48.962;9.182;2024-03-02T11:42:55;5.40;;;2.65;;
19679;SDS011;9989;48.962;9.182;2024-03-02T11:45:22;5.45;;;2.50;;
19679;SDS011;9989;48.962;9.182;2024-03-02T11:47:55;4.47;;;2.00;;
19679;SDS011;9989;48.962;9.182;2024-03-02T11:50:35;3.83;;;1.92;;
19679;SDS011;9989;48.962;9.182;2024-03-02T11:53:05;4.65;;;1.80;;
19679;SDS011;9989;48.962;9.182;2024-03-02T11:55:33;4.72;;;1.70;;
19679;SDS011;9989;48.962;9.182;2024-03-02T11:58:02;4.22;;;1.92;;
19679;SDS011;9989;48.962;9.182;2024-03-02T12:00:31;3.37;;;1.53;;
19679;SDS011;9989;48.962;9.182;2024-03-02T12:03:10;3.27;;;1.40;;
19679;SDS011;9989;48.962;9.182;2024-03-02T12:05:38;4.40;;;1.60;;
19679;SDS011;9989;48.962;9.182;2024-03-02T12:08:07;3.63;;;1.60;;
19679;SDS011;9989;48.962;9.182;2024-03-02T12:10:34;3.83;;;1.70;;
19679;SDS011;9989;48.962;9.182;2024-03-02T12:13:02;5.17;;;2.17;;
19679;SDS011;9989;48.962;9.182;2024-03-02T12:15:29;4.60;;;2.23;;
19679;SDS011;9989;48.962;9.182;2024-03-02T12:17:57;4.43;;;1.83;;
19679;SDS011;9989;48.962;9.182;2024-03-02T12:20:24;3.07;;;1.70;;
19679;SDS011;9989;48.962;9.182;2024-03-02T12:22:51;4.03;;;1.63;;
19679;SDS011;9989;48.962;9.182;2024-03-02T12:25:20;5.13;;;2.40;;
19679;SDS011;9989;48.962;9.182;2024-03-02T12:27:47;3.47;;;1.53;;
19679;SDS011;9989;48.962;9.182;2024-03-02T12:30:18;4.23;;;1.80;;
19679;SDS011;9989;48.962;9.182;2024-03-02T12:32:45;4.17;;;1.80;;
19679;SDS011;9989;48.962;9.182;2024-03-02T12:35:11;4.63;;;1.90;;
19679;SDS011;9989;48.962;9.182;2024-03-02T12:40:12;4.00;;;1.80;;
19679;SDS011;9989;48.962;9.182;2024-03-02T12:42:41;3.87;;;1.70;;
19679;SDS011;9989;48.962;9.182;2024-03-02T12:45:07;3.50;;;1.77;;
19679;SDS011;9989;48.962;9.182;2024-03-02T12:47:34;5.13;;;2.00;;
19679;SDS011;9989;48.962;9.182;2024-03-02T12:50:00;3.63;;;1.70;;
19679;SDS011;9989;48.962;9.182;2024-03-02T12:52:27;3.77;;;1.67;;
19679;SDS011;9989;48.962;9.182;2024-03-02T12:54:53;3.93;;;1.73;;
19679;SDS011;9989;48.962;9.182;2024-03-02T12:57:24;3.93;;;1.73;;
19679;SDS011;9989;48.962;9.182;2024-03-02T12:59:52;3.77;;;1.70;;
19679;SDS011;9989;48.962;9.182;2024-03-02T13:02:18;4.40;;;1.70;;
19679;SDS011;9989;48.962;9.182;2024-03-02T13:04:43;3.40;;;1.60;;
19679;SDS011;9989;48.962;9.182;2024-03-02T13:07:10;4.10;;;1.53;;
19679;SDS011;9989;48.962;9.182;2024-03-02T13:09:38;3.43;;;1.50;;
19679;SDS011;9989;48.962;9.182;2024-03-02T13:12:04;3.73;;;1.60;;
19679;SDS011;9989;48.962;9.182;2024-03-02T13:14:33;4.27;;;1.70;;
19679;SDS011;9989;48.962;9.182;2024-03-02T13:17:00;4.10;;;1.53;;
19679;SDS011;9989;48.962;9.182;2024-03-02T13:19:29;2.80;;;1.30;;
19679;SDS011;9989;48.962;9.182;2024-03-02T13:21:55;4.10;;;1.40;;
19679;SDS011;9989;48.962;9.182;2024-03-02T13:24:22;3.43;;;1.40;;
19679;SDS011;9989;48.962;9.182;2024-03-02T13:26:50;3.33;;;1.30;;
19679;SDS011;9989;48.962;9.182;2024-03-02T13:29:20;1.90;;;1.03;;
19679;SDS011;9989;48.962;9.182;2024-03-02T13:31:46;3.03;;;1.43;;
19679;SDS011;9989;48.962;9.182;2024-03-02T13:34:12;2.40;;;1.30;;
19679;SDS011;9989;48.962;9.182;2024-03-02T13:36:37;2.53;;;1.30;;
19679;SDS011;9989;48.962;9.182;2024-03-02T13:39:03;2.00;;;1.17;;
19679;SDS011;9989;48.962;9.182;2024-03-02T13:41:31;3.80;;;1.40;;
19679;SDS011;9989;48.962;9.182;2024-03-02T13:43:56;5.10;;;1.40;;
19679;SDS011;9989;48.962;9.182;2024-03-02T13:46:25;3.20;;;1.70;;
19679;SDS011;9989;48.962;9.182;2024-03-02T13:48:50;4.30;;;1.90;;
19679;SDS011;9989;48.962;9.182;2024-03-02T13:51:17;5.90;;;2.57;;
19679;SDS011;9989;48.962;9.182;2024-03-02T13:53:42;7.00;;;2.70;;
19679;SDS011;9989;48.962;9.182;2024-03-02T13:56:08;7.10;;;3.13;;
19679;SDS011;9989;48.962;9.182;2024-03-02T13:58:34;5.60;;;2.47;;
19679;SDS011;9989;48.962;9.182;2024-03-02T14:00:59;4.93;;;2.03;;
19679;SDS011;9989;48.962;9.182;2024-03-02T14:03:26;3.63;;;1.53;;
19679;SDS011;9989;48.962;9.182;2024-03-02T14:09:00;2.57;;;1.20;;
19679;SDS011;9989;48.962;9.182;2024-03-02T14:11:26;2.07;;;1.07;;
19679;SDS011;9989;48.962;9.182;2024-03-02T14:13:52;3.10;;;1.20;;
19679;SDS011;9989;48.962;9.182;2024-03-02T14:16:19;3.27;;;1.43;;
19679;SDS011;9989;48.962;9.182;2024-03-02T14:18:45;7.17;;;2.83;;
19679;SDS011;9989;48.962;9.182;2024-03-02T14:21:11;5.90;;;2.70;;
19679;SDS011;9989;48.962;9.182;2024-03-02T14:23:36;4.33;;;1.83;;
19679;SDS011;9989;48.962;9.182;2024-03-02T14:26:02;2.17;;;1.20;;
19679;SDS011;9989;48.962;9.182;2024-03-02T14:28:28;3.17;;;1.50;;
19679;SDS011;9989;48.962;9.182;2024-03-02T14:30:56;4.00;;;1.60;;
19679;SDS011;9989;48.962;9.182;2024-03-02T14:33:22;4.07;;;1.50;;
19679;SDS011;9989;48.962;9.182;2024-03-02T14:35:47;3.07;;;1.50;;
19679;SDS011;9989;48.962;9.182;2024-03-02T14:38:13;3.43;;;1.40;;
19679;SDS011;9989;48.962;9.182;2024-03-02T14:40:39;3.47;;;1.50;;
19679;SDS011;9989;48.962;9.182;2024-03-02T14:43:05;2.57;;;1.20;;
19679;SDS011;9989;48.962;9.182;2024-03-02T14:45:30;2.10;;;1.20;;
19679;SDS011;9989;48.962;9.182;2024-03-02T14:47:56;3.00;;;1.43;;
19679;SDS011;9989;48.962;9.182;2024-03-02T14:50:24;3.23;;;1.20;;
19679;SDS011;9989;48.962;9.182;2024-03-02T14:52:51;2.90;;;1.30;;